createdAt,value
2018-09-14T00:00:38.491Z,9.03
2018-09-14T00:03:08.002Z,8.03
2018-09-14T00:05:36.580Z,6.00
2018-09-14T00:08:05.652Z,6.23
2018-09-14T00:10:34.272Z,6.40
2018-09-14T00:13:02.897Z,9.60
2018-09-14T00:15:31.542Z,7.27
2018-09-14T00:18:00.203Z,11.30
2018-09-14T00:20:28.782Z,6.37
2018-09-14T00:22:57.578Z,9.17
2018-09-14T00:25:26.194Z,5.97
2018-09-14T00:27:54.854Z,8.87
2018-09-14T00:30:23.490Z,6.70
2018-09-14T00:32:52.094Z,8.53
2018-09-14T00:35:20.682Z,7.10
2018-09-14T00:37:49.287Z,6.57
2018-09-14T00:40:17.898Z,8.97
2018-09-14T00:42:46.520Z,6.50
2018-09-14T00:45:15.151Z,7.97
2018-09-14T00:47:43.723Z,6.57
2018-09-14T00:50:12.308Z,5.70
2018-09-14T00:52:40.938Z,7.83
2018-09-14T00:55:09.645Z,7.33
2018-09-14T00:57:38.316Z,6.20
2018-09-14T01:00:09.855Z,8.40
2018-09-14T01:02:38.440Z,6.97
2018-09-14T01:05:07.073Z,8.43
2018-09-14T01:07:36.203Z,7.43
2018-09-14T01:10:06.563Z,6.43
2018-09-14T01:12:35.121Z,7.63
2018-09-14T01:15:03.787Z,6.63
2018-09-14T01:17:32.366Z,6.40
2018-09-14T01:20:00.962Z,6.10
2018-09-14T01:22:29.593Z,6.13
2018-09-14T01:24:58.130Z,7.33
2018-09-14T01:27:26.709Z,9.43
2018-09-14T01:29:55.304Z,6.67
2018-09-14T01:32:23.914Z,11.37
2018-09-14T01:34:52.489Z,8.13
2018-09-14T01:37:21.101Z,7.97
2018-09-14T01:39:49.650Z,6.27
2018-09-14T01:42:18.219Z,8.30
2018-09-14T01:44:46.839Z,6.20
2018-09-14T01:47:15.481Z,6.43
2018-09-14T01:49:44.054Z,8.03
2018-09-14T01:52:12.642Z,6.67
2018-09-14T01:54:41.221Z,6.00
2018-09-14T01:57:09.774Z,5.67
2018-09-14T01:59:38.391Z,6.00
2018-09-14T02:02:07.111Z,6.43
2018-09-14T02:04:35.708Z,6.83
2018-09-14T02:07:04.331Z,5.17
2018-09-14T02:09:32.958Z,8.17
2018-09-14T02:12:01.639Z,5.90
2018-09-14T02:14:30.253Z,6.43
2018-09-14T02:16:58.809Z,7.43
2018-09-14T02:19:27.388Z,7.53
2018-09-14T02:21:56.057Z,6.23
2018-09-14T02:24:24.667Z,4.70
2018-09-14T02:26:53.192Z,5.77
2018-09-14T02:29:21.828Z,7.23
2018-09-14T02:31:50.355Z,5.03
2018-09-14T02:34:18.956Z,6.23
2018-09-14T02:36:47.580Z,5.10
2018-09-14T02:39:16.124Z,8.30
2018-09-14T02:41:44.661Z,6.37
2018-09-14T02:44:13.277Z,9.50
2018-09-14T02:46:41.875Z,6.83
2018-09-14T02:49:10.463Z,5.27
2018-09-14T02:51:39.040Z,5.77
2018-09-14T02:54:08.359Z,11.03
2018-09-14T02:56:36.958Z,4.93
2018-09-14T02:59:05.607Z,6.60
2018-09-14T03:01:34.204Z,5.97
2018-09-14T03:04:02.751Z,4.63
2018-09-14T03:06:31.652Z,4.97
2018-09-14T03:09:00.257Z,5.40
2018-09-14T03:11:28.823Z,6.87
2018-09-14T03:13:57.443Z,6.00
2018-09-14T03:16:26.153Z,4.80
2018-09-14T03:18:54.763Z,7.67
2018-09-14T03:21:23.329Z,6.60
2018-09-14T03:23:51.905Z,6.10
2018-09-14T03:26:20.430Z,6.97
2018-09-14T03:28:49.078Z,4.97
2018-09-14T03:31:18.035Z,6.73
2018-09-14T03:33:46.604Z,6.90
2018-09-14T03:36:15.313Z,7.33
2018-09-14T03:38:43.849Z,6.17
2018-09-14T03:41:12.468Z,5.50
2018-09-14T03:43:41.040Z,4.57
2018-09-14T03:46:09.621Z,4.90
2018-09-14T03:48:38.536Z,5.00
2018-09-14T03:51:07.255Z,6.17
2018-09-14T03:53:35.951Z,8.07
2018-09-14T03:56:05.145Z,5.13
2018-09-14T03:58:33.811Z,5.37
2018-09-14T04:01:02.703Z,8.60
2018-09-14T04:03:31.265Z,4.93
2018-09-14T04:05:59.908Z,7.30
2018-09-14T04:08:28.500Z,6.60
2018-09-14T04:10:57.120Z,4.63
2018-09-14T04:13:25.731Z,5.83
2018-09-14T04:15:54.322Z,6.63
2018-09-14T04:18:23.127Z,5.83
2018-09-14T04:20:51.727Z,7.17
2018-09-14T04:23:20.349Z,8.07
2018-09-14T04:25:48.925Z,5.77
2018-09-14T04:28:17.563Z,6.80
2018-09-14T04:30:46.198Z,7.20
2018-09-14T04:33:14.778Z,5.10
2018-09-14T04:35:43.372Z,6.37
2018-09-14T04:38:12.029Z,5.90
2018-09-14T04:40:40.601Z,8.53
2018-09-14T04:43:09.206Z,5.07
2018-09-14T04:45:37.773Z,5.23
2018-09-14T04:48:06.367Z,6.57
2018-09-14T04:50:34.964Z,5.97
2018-09-14T04:53:03.549Z,6.23
2018-09-14T04:55:32.116Z,8.23
2018-09-14T04:58:00.806Z,6.20
2018-09-14T05:00:29.400Z,5.77
2018-09-14T05:02:58.070Z,6.83
2018-09-14T05:05:26.637Z,7.30
2018-09-14T05:07:55.306Z,6.23
2018-09-14T05:10:23.907Z,8.53
2018-09-14T05:12:52.489Z,8.77
2018-09-14T05:15:21.071Z,6.93
2018-09-14T05:17:49.640Z,8.53
2018-09-14T05:20:18.292Z,8.57
2018-09-14T05:22:46.874Z,10.40
2018-09-14T05:25:15.440Z,5.93
2018-09-14T05:27:44.674Z,7.87
2018-09-14T05:30:13.256Z,7.97
2018-09-14T05:32:41.851Z,8.20
2018-09-14T05:35:10.493Z,6.93
2018-09-14T05:37:39.175Z,5.70
2018-09-14T05:40:07.753Z,7.93
2018-09-14T05:42:36.357Z,8.77
2018-09-14T05:45:04.962Z,7.87
2018-09-14T05:47:33.597Z,8.47
2018-09-14T05:50:02.382Z,10.83
2018-09-14T05:52:30.964Z,8.50
2018-09-14T05:54:59.501Z,13.67
2018-09-14T05:57:28.287Z,11.50
2018-09-14T05:59:57.391Z,12.93
2018-09-14T06:02:26.065Z,12.73
2018-09-14T06:04:54.813Z,8.63
2018-09-14T06:07:23.571Z,10.40
2018-09-14T06:09:52.144Z,11.77
2018-09-14T06:12:20.780Z,8.90
2018-09-14T06:14:49.397Z,12.77
2018-09-14T06:17:17.994Z,8.97
2018-09-14T06:19:46.596Z,9.77
2018-09-14T06:22:15.184Z,9.00
2018-09-14T06:24:44.016Z,9.13
2018-09-14T06:27:12.658Z,10.93
2018-09-14T06:29:41.285Z,13.03
2018-09-14T06:32:09.861Z,10.67
2018-09-14T06:34:38.487Z,13.23
2018-09-14T06:37:07.077Z,9.77
2018-09-14T06:39:35.658Z,10.90
2018-09-14T06:42:04.345Z,10.13
2018-09-14T06:44:32.956Z,9.30
2018-09-14T06:47:01.547Z,10.73
2018-09-14T06:49:30.551Z,10.03
2018-09-14T06:51:59.224Z,12.90
2018-09-14T06:54:27.876Z,9.97
2018-09-14T06:56:56.549Z,11.80
2018-09-14T06:59:25.163Z,9.20
2018-09-14T07:01:53.799Z,10.43
2018-09-14T07:04:22.442Z,9.83
2018-09-14T07:06:52.066Z,11.87
2018-09-14T07:09:20.738Z,13.03
2018-09-14T07:11:49.352Z,11.60
2018-09-14T07:14:17.944Z,11.53
2018-09-14T07:16:46.566Z,12.63
2018-09-14T07:19:15.210Z,11.90
2018-09-14T07:21:43.926Z,10.03
2018-09-14T07:24:12.691Z,10.80
2018-09-14T07:26:41.294Z,8.70
2018-09-14T07:29:10.018Z,11.13
2018-09-14T07:31:38.523Z,10.17
2018-09-14T07:34:07.273Z,13.00
2018-09-14T07:36:36.058Z,11.97
2018-09-14T07:39:06.601Z,10.07
2018-09-14T07:41:35.211Z,9.50
2018-09-14T07:44:03.830Z,8.07
2018-09-14T07:46:33.056Z,8.70
2018-09-14T07:49:01.717Z,10.60
2018-09-14T07:51:30.353Z,9.60
2018-09-14T07:53:58.939Z,11.77
2018-09-14T07:56:27.552Z,9.93
2018-09-14T07:58:56.688Z,7.77
2018-09-14T08:01:25.302Z,8.53
2018-09-14T08:03:53.908Z,9.40
2018-09-14T08:06:22.482Z,8.60
2018-09-14T08:08:51.061Z,9.27
2018-09-14T08:11:19.716Z,7.30
2018-09-14T08:13:48.445Z,12.37
2018-09-14T08:16:17.037Z,7.73
2018-09-14T08:18:45.679Z,7.17
2018-09-14T08:21:15.969Z,9.13
2018-09-14T08:23:44.508Z,7.07
2018-09-14T08:26:13.171Z,7.73
2018-09-14T08:28:41.798Z,5.53
2018-09-14T08:31:10.438Z,6.93
2018-09-14T08:33:39.039Z,6.17
2018-09-14T08:36:07.676Z,5.80
2018-09-14T08:38:36.315Z,8.77
2018-09-14T08:41:04.900Z,6.97
2018-09-14T08:43:33.505Z,5.67
2018-09-14T08:46:02.157Z,4.93
2018-09-14T08:48:30.840Z,5.53
2018-09-14T08:50:59.477Z,5.73
2018-09-14T08:53:28.099Z,3.80
2018-09-14T08:55:56.730Z,5.07
2018-09-14T08:58:25.327Z,4.90
2018-09-14T09:00:54.304Z,5.67
2018-09-14T09:03:22.747Z,6.17
2018-09-14T09:05:51.512Z,3.50
2018-09-14T09:08:20.133Z,4.53
2018-09-14T09:10:48.760Z,4.27
2018-09-14T09:13:17.337Z,5.53
2018-09-14T09:15:46.002Z,5.03
2018-09-14T09:18:14.661Z,5.90
2018-09-14T09:20:43.339Z,5.63
2018-09-14T09:23:12.074Z,4.27
2018-09-14T09:25:40.755Z,3.87
2018-09-14T09:28:09.380Z,5.60
2018-09-14T09:30:37.987Z,4.63
2018-09-14T09:33:06.702Z,4.20
2018-09-14T09:35:35.290Z,5.28
2018-09-14T09:38:04.451Z,4.87
2018-09-14T09:40:33.065Z,6.37
2018-09-14T09:43:01.720Z,4.25
2018-09-14T09:45:30.308Z,3.67
2018-09-14T09:47:58.990Z,3.27
2018-09-14T09:50:27.597Z,4.13
2018-09-14T09:52:56.231Z,6.10
2018-09-14T09:55:24.831Z,6.93
2018-09-14T09:57:53.427Z,5.20
2018-09-14T10:00:27.557Z,6.73
2018-09-14T10:03:01.652Z,7.35
2018-09-14T10:05:35.575Z,3.37
2018-09-14T10:08:04.164Z,3.95
2018-09-14T10:10:32.757Z,4.50
2018-09-14T10:13:01.401Z,4.65
2018-09-14T10:15:29.970Z,5.70
2018-09-14T10:17:58.574Z,6.72
2018-09-14T10:20:27.216Z,7.05
2018-09-14T10:22:55.780Z,3.45
2018-09-14T10:25:24.355Z,7.10
2018-09-14T10:27:52.951Z,3.95
2018-09-14T10:30:21.575Z,4.58
2018-09-14T10:32:50.219Z,5.70
2018-09-14T10:35:18.856Z,6.40
2018-09-14T10:37:47.427Z,5.58
2018-09-14T10:40:16.058Z,4.47
2018-09-14T10:42:45.507Z,4.72
2018-09-14T10:45:14.134Z,6.10
2018-09-14T10:47:42.710Z,3.98
2018-09-14T10:52:52.502Z,4.78
2018-09-14T10:55:21.167Z,7.13
2018-09-14T10:57:49.755Z,6.05
2018-09-14T11:00:18.398Z,5.63
2018-09-14T11:02:47.011Z,3.95
2018-09-14T11:05:15.638Z,3.08
2018-09-14T11:07:44.239Z,5.72
2018-09-14T11:10:12.879Z,3.00
2018-09-14T11:12:41.773Z,2.50
2018-09-14T11:15:10.328Z,5.15
2018-09-14T11:17:38.963Z,6.15
2018-09-14T11:20:07.584Z,4.47
2018-09-14T11:22:36.203Z,4.83
2018-09-14T11:25:04.916Z,4.33
2018-09-14T11:27:33.533Z,6.42
2018-09-14T11:30:02.717Z,7.62
2018-09-14T11:32:33.067Z,6.15
2018-09-14T11:35:01.781Z,5.55
2018-09-14T11:37:30.503Z,2.85
2018-09-14T11:40:00.648Z,4.20
2018-09-14T11:42:29.716Z,3.40
2018-09-14T11:44:58.701Z,6.33
2018-09-14T11:47:27.424Z,4.60
2018-09-14T11:49:56.197Z,9.43
2018-09-14T11:52:25.500Z,4.65
2018-09-14T11:54:54.315Z,5.90
2018-09-14T11:57:22.952Z,3.58
2018-09-14T11:59:51.587Z,2.40
2018-09-14T12:02:22.847Z,4.33
2018-09-14T12:04:51.901Z,6.15
2018-09-14T12:07:20.514Z,4.03
2018-09-14T12:09:49.186Z,3.58
2018-09-14T12:12:17.845Z,6.20
2018-09-14T12:14:46.467Z,5.22
2018-09-14T12:17:15.174Z,6.10
2018-09-14T12:19:43.927Z,6.05
2018-09-14T12:22:12.684Z,5.75
2018-09-14T12:24:41.343Z,6.35
2018-09-14T12:27:09.969Z,7.40
2018-09-14T12:29:38.602Z,6.72
2018-09-14T12:32:07.239Z,6.85
2018-09-14T12:34:35.874Z,5.97
2018-09-14T12:37:04.489Z,7.20
2018-09-14T12:39:33.070Z,7.17
2018-09-14T12:42:01.735Z,6.35
2018-09-14T12:44:30.347Z,7.65
2018-09-14T12:46:58.995Z,5.12
2018-09-14T12:49:27.699Z,8.43
2018-09-14T12:51:56.335Z,8.10
2018-09-14T12:54:25.015Z,5.62
2018-09-14T12:56:53.761Z,7.45
2018-09-14T12:59:22.384Z,8.78
2018-09-14T13:01:51.065Z,6.92
2018-09-14T13:04:19.737Z,9.73
2018-09-14T13:06:48.364Z,7.67
2018-09-14T13:09:17.012Z,7.75
2018-09-14T13:11:45.675Z,5.75
2018-09-14T13:14:17.591Z,5.60
2018-09-14T13:16:46.227Z,7.72
2018-09-14T13:19:14.911Z,7.53
2018-09-14T13:21:43.525Z,6.62
2018-09-14T13:24:12.356Z,7.00
2018-09-14T13:26:40.948Z,6.03
2018-09-14T13:29:09.661Z,5.90
2018-09-14T13:31:38.320Z,7.17
2018-09-14T13:34:07.170Z,6.42
2018-09-14T13:36:35.761Z,8.15
2018-09-14T13:39:06.145Z,6.28
2018-09-14T13:41:34.775Z,8.60
2018-09-14T13:44:03.382Z,6.25
2018-09-14T13:46:32.297Z,6.25
2018-09-14T13:49:00.913Z,7.97
2018-09-14T13:51:29.482Z,5.78
2018-09-14T13:53:58.261Z,8.15
2018-09-14T13:56:26.953Z,8.08
2018-09-14T13:58:55.586Z,8.08
2018-09-14T14:01:24.294Z,8.35
2018-09-14T14:03:53.009Z,7.10
2018-09-14T14:06:21.661Z,7.75
2018-09-14T14:08:50.419Z,5.75
2018-09-14T14:11:19.042Z,7.37
2018-09-14T14:13:47.763Z,6.15
2018-09-14T14:16:16.425Z,7.20
2018-09-14T14:18:46.554Z,6.87
2018-09-14T14:21:15.145Z,6.03
2018-09-14T14:23:43.850Z,7.47
2018-09-14T14:26:12.473Z,7.00
2018-09-14T14:28:41.113Z,5.40
2018-09-14T14:31:09.836Z,6.67
2018-09-14T14:33:38.491Z,5.85
2018-09-14T14:36:07.120Z,5.87
2018-09-14T14:38:35.776Z,7.58
2018-09-14T14:41:04.396Z,6.92
2018-09-14T14:43:33.042Z,4.78
2018-09-14T14:46:01.726Z,5.30
2018-09-14T14:48:30.347Z,5.53
2018-09-14T14:50:58.966Z,5.10
2018-09-14T14:53:27.622Z,6.42
2018-09-14T14:55:56.278Z,4.40
2018-09-14T14:58:24.965Z,8.73
2018-09-14T15:00:53.688Z,4.65
2018-09-14T15:03:22.310Z,5.50
2018-09-14T15:05:50.921Z,5.37
2018-09-14T15:08:19.551Z,6.05
2018-09-14T15:10:48.190Z,4.05
2018-09-14T15:13:17.143Z,5.55
2018-09-14T15:15:45.867Z,5.60
2018-09-14T15:18:14.506Z,4.42
2018-09-14T15:20:43.158Z,4.75
2018-09-14T15:23:11.807Z,4.53
2018-09-14T15:25:40.450Z,6.90
2018-09-14T15:28:10.047Z,6.37
2018-09-14T15:30:38.747Z,8.78
2018-09-14T15:33:07.417Z,5.62
2018-09-14T15:35:36.424Z,5.75
2018-09-14T15:38:05.218Z,5.15
2018-09-14T15:40:33.858Z,9.78
2018-09-14T15:43:02.542Z,6.33
2018-09-14T15:45:31.307Z,8.13
2018-09-14T15:47:59.895Z,10.95
2018-09-14T15:50:28.768Z,6.65
2018-09-14T15:52:59.266Z,5.67
2018-09-14T15:55:29.467Z,9.40
2018-09-14T15:57:58.116Z,9.05
2018-09-14T16:00:26.788Z,6.65
2018-09-14T16:02:55.371Z,9.00
2018-09-14T16:05:24.025Z,11.37
2018-09-14T16:07:52.683Z,6.05
2018-09-14T16:10:21.310Z,9.53
2018-09-14T16:12:50.004Z,5.97
2018-09-14T16:15:18.743Z,5.20
2018-09-14T16:17:47.354Z,8.38
2018-09-14T16:20:15.970Z,7.93
2018-09-14T16:22:44.744Z,5.60
2018-09-14T16:25:13.409Z,5.27
2018-09-14T16:27:42.136Z,5.65
2018-09-14T16:30:10.794Z,7.87
2018-09-14T16:32:39.398Z,6.78
2018-09-14T16:35:08.028Z,7.67
2018-09-14T16:37:36.655Z,6.25
2018-09-14T16:40:05.449Z,8.15
2018-09-14T16:42:34.077Z,9.33
2018-09-14T16:45:02.775Z,6.72
2018-09-14T16:47:31.555Z,8.65
2018-09-14T16:50:00.175Z,7.58
2018-09-14T16:52:28.801Z,7.53
2018-09-14T16:54:57.392Z,6.10
2018-09-14T16:57:26.077Z,7.20
2018-09-14T16:59:54.796Z,8.30
2018-09-14T17:02:23.429Z,8.73
2018-09-14T17:04:52.025Z,7.00
2018-09-14T17:07:20.647Z,8.78
2018-09-14T17:09:49.467Z,7.37
2018-09-14T17:12:18.378Z,9.15
2018-09-14T17:14:47.395Z,5.97
2018-09-14T17:17:16.015Z,7.97
2018-09-14T17:19:51.009Z,10.25
2018-09-14T17:22:19.795Z,6.47
2018-09-14T17:24:48.446Z,7.25
2018-09-14T17:27:17.104Z,6.62
2018-09-14T17:29:45.725Z,5.90
2018-09-14T17:32:14.339Z,9.98
2018-09-14T17:34:43.003Z,9.80
2018-09-14T17:37:11.644Z,8.95
2018-09-14T17:39:40.361Z,11.08
2018-09-14T17:42:09.197Z,7.92
2018-09-14T17:44:37.881Z,11.00
2018-09-14T17:47:06.488Z,12.18
2018-09-14T17:49:35.182Z,11.30
2018-09-14T17:52:03.839Z,12.78
2018-09-14T17:54:32.473Z,14.73
2018-09-14T17:57:01.152Z,10.13
2018-09-14T17:59:29.759Z,8.45
2018-09-14T18:01:58.495Z,10.03
2018-09-14T18:04:27.176Z,7.05
2018-09-14T18:06:55.806Z,11.65
2018-09-14T18:09:24.467Z,8.58
2018-09-14T18:11:53.097Z,12.43
2018-09-14T18:14:21.701Z,14.25
2018-09-14T18:16:50.318Z,11.65
2018-09-14T18:19:18.968Z,8.95
2018-09-14T18:21:47.592Z,8.40
2018-09-14T18:24:16.205Z,10.58
2018-09-14T18:26:44.867Z,12.23
2018-09-14T18:29:13.454Z,10.38
2018-09-14T18:31:42.060Z,7.83
2018-09-14T18:34:10.718Z,8.33
2018-09-14T18:36:39.361Z,9.38
2018-09-14T18:39:10.182Z,6.25
2018-09-14T18:41:39.110Z,9.10
2018-09-14T18:44:07.788Z,4.97
2018-09-14T18:46:36.859Z,11.63
2018-09-14T18:49:05.579Z,7.85
2018-09-14T18:51:34.199Z,6.47
2018-09-14T18:54:02.888Z,7.03
2018-09-14T18:56:31.523Z,11.28
2018-09-14T18:59:00.139Z,10.53
2018-09-14T19:01:28.967Z,8.68
2018-09-14T19:03:57.589Z,6.37
2018-09-14T19:06:26.204Z,8.95
2018-09-14T19:08:54.879Z,8.48
2018-09-14T19:11:23.505Z,7.62
2018-09-14T19:13:52.108Z,6.78
2018-09-14T19:16:20.923Z,9.58
2018-09-14T19:18:49.524Z,13.30
2018-09-14T19:21:18.147Z,9.05
2018-09-14T19:23:46.867Z,8.33
2018-09-14T19:26:15.471Z,6.08
2018-09-14T19:28:44.104Z,6.80
2018-09-14T19:31:12.912Z,6.33
2018-09-14T19:33:41.658Z,7.22
2018-09-14T19:36:10.355Z,6.78
2018-09-14T19:38:39.171Z,6.22
2018-09-14T19:41:07.813Z,7.90
2018-09-14T19:43:36.462Z,8.88
2018-09-14T19:46:05.115Z,5.37
2018-09-14T19:48:33.693Z,7.90
2018-09-14T19:51:02.367Z,6.33
2018-09-14T19:53:31.106Z,6.20
2018-09-14T19:55:59.806Z,4.72
2018-09-14T19:58:28.432Z,6.00
2018-09-14T20:00:57.174Z,4.65
2018-09-14T20:03:25.782Z,7.42
2018-09-14T20:05:54.396Z,4.78
2018-09-14T20:08:23.137Z,7.40
2018-09-14T20:10:51.751Z,5.75
2018-09-14T20:13:20.376Z,5.60
2018-09-14T20:15:49.072Z,5.50
2018-09-14T20:18:17.880Z,3.62
2018-09-14T20:20:46.370Z,3.87
2018-09-14T20:23:15.093Z,4.10
2018-09-14T20:25:43.754Z,4.25
2018-09-14T20:28:12.337Z,2.55
2018-09-14T20:30:40.951Z,4.47
2018-09-14T20:33:09.699Z,5.45
2018-09-14T20:35:38.325Z,6.37
2018-09-14T20:38:06.971Z,3.72
2018-09-14T20:40:35.572Z,5.10
2018-09-14T20:43:04.257Z,8.10
2018-09-14T20:45:32.886Z,6.00
2018-09-14T20:48:02.389Z,5.12
2018-09-14T20:50:31.035Z,6.42
2018-09-14T20:52:59.650Z,4.67
2018-09-14T20:55:28.257Z,3.12
2018-09-14T20:57:56.887Z,7.47
2018-09-14T21:00:25.978Z,6.97
2018-09-14T21:02:55.114Z,4.10
2018-09-14T21:05:23.775Z,9.30
2018-09-14T21:07:52.429Z,6.08
2018-09-14T21:10:21.076Z,6.77
2018-09-14T21:12:49.697Z,4.08
2018-09-14T21:15:18.355Z,4.03
2018-09-14T21:17:46.995Z,4.10
2018-09-14T21:20:15.599Z,5.93
2018-09-14T21:22:44.379Z,5.62
2018-09-14T21:25:12.986Z,3.93
2018-09-14T21:27:41.619Z,5.22
2018-09-14T21:30:10.262Z,3.60
2018-09-14T21:32:39.094Z,4.10
2018-09-14T21:35:07.746Z,5.58
2018-09-14T21:37:36.379Z,4.92
2018-09-14T21:40:05.095Z,4.92
2018-09-14T21:42:33.709Z,5.33
2018-09-14T21:45:02.390Z,4.25
2018-09-14T21:47:30.997Z,5.53
2018-09-14T21:49:59.592Z,4.28
2018-09-14T21:52:28.237Z,9.35
2018-09-14T21:54:56.906Z,5.95
2018-09-14T21:57:25.533Z,4.95
2018-09-14T21:59:54.245Z,4.78
2018-09-14T22:02:22.869Z,3.40
2018-09-14T22:04:51.497Z,5.72
2018-09-14T22:07:20.133Z,2.67
2018-09-14T22:09:48.763Z,5.08
2018-09-14T22:12:17.379Z,3.22
2018-09-14T22:14:46.022Z,5.43
2018-09-14T22:17:14.601Z,5.67
2018-09-14T22:19:43.205Z,5.42
2018-09-14T22:22:11.834Z,3.33
2018-09-14T22:24:40.464Z,6.00
2018-09-14T22:27:09.085Z,4.20
2018-09-14T22:29:37.712Z,3.33
2018-09-14T22:32:06.623Z,3.08
2018-09-14T22:34:35.236Z,3.87
2018-09-14T22:37:03.901Z,5.00
2018-09-14T22:39:32.541Z,5.17
2018-09-14T22:42:01.202Z,7.30
2018-09-14T22:44:29.797Z,5.10
2018-09-14T22:46:58.402Z,6.03
2018-09-14T22:49:26.968Z,5.33
2018-09-14T22:51:55.677Z,4.75
2018-09-14T22:54:24.273Z,4.10
2018-09-14T22:56:52.876Z,6.20
2018-09-14T22:59:21.532Z,3.20
2018-09-14T23:01:52.715Z,6.22
2018-09-14T23:04:22.183Z,6.13
2018-09-14T23:06:51.430Z,5.13
2018-09-14T23:09:20.041Z,6.72
2018-09-14T23:11:48.674Z,8.43
2018-09-14T23:14:17.259Z,12.20
2018-09-14T23:16:45.834Z,4.55
2018-09-14T23:19:14.413Z,8.17
2018-09-14T23:21:43.008Z,6.43
2018-09-14T23:24:11.590Z,5.83
2018-09-14T23:26:40.286Z,4.00
2018-09-14T23:29:08.954Z,7.15
2018-09-14T23:31:37.530Z,5.33
2018-09-14T23:34:06.246Z,5.67
2018-09-14T23:36:34.818Z,5.97
2018-09-14T23:39:03.801Z,4.97
2018-09-14T23:41:32.604Z,2.60
2018-09-14T23:44:01.195Z,3.30
2018-09-14T23:46:29.774Z,4.97
2018-09-14T23:48:58.393Z,4.53
2018-09-14T23:51:27.526Z,3.90
2018-09-14T23:53:56.179Z,3.90
2018-09-14T23:56:24.802Z,4.23
2018-09-14T23:58:53.380Z,9.23
